createdAt,value
2023-01-28T00:00:02.643Z,81.56
2023-01-28T00:01:02.322Z,81.45
2023-01-28T00:02:02.334Z,81.03
2023-01-28T00:03:02.328Z,80.93
2023-01-28T00:04:02.392Z,80.93
2023-01-28T00:05:02.293Z,81.03
2023-01-28T00:06:02.297Z,81.13
2023-01-28T00:07:02.285Z,81.13
2023-01-28T00:08:02.283Z,81.03
2023-01-28T00:09:02.222Z,81.03
2023-01-28T00:10:02.261Z,80.82
2023-01-28T00:11:02.195Z,80.82
2023-01-28T00:12:02.246Z,80.72
2023-01-28T00:13:02.171Z,80.62
2023-01-28T00:14:02.210Z,80.62
2023-01-28T00:15:02.182Z,80.82
2023-01-28T00:16:02.214Z,80.93
2023-01-28T00:17:02.127Z,80.93
2023-01-28T00:18:02.143Z,80.62
2023-01-28T00:19:02.111Z,80.72
2023-01-28T00:20:02.151Z,81.18
2023-01-28T00:21:02.074Z,81.38
2023-01-28T00:22:02.091Z,81.49
2023-01-28T00:23:02.053Z,81.59
2023-01-28T00:24:02.137Z,81.70
2023-01-28T00:25:02.023Z,81.80
2023-01-28T00:26:02.082Z,81.80
2023-01-28T00:27:02.008Z,81.70
2023-01-28T00:28:02.021Z,81.59
2023-01-28T00:29:01.983Z,81.49
2023-01-28T00:30:01.998Z,81.49
2023-01-28T00:31:01.993Z,81.49
2023-01-28T00:32:02.005Z,81.18
2023-01-28T00:33:01.926Z,81.28
2023-01-28T00:34:01.934Z,81.38
2023-01-28T00:35:01.905Z,81.28
2023-01-28T00:36:01.919Z,81.38
2023-01-28T00:37:01.903Z,81.03
2023-01-28T00:38:01.900Z,81.03
2023-01-28T00:39:01.851Z,81.13
2023-01-28T00:40:01.863Z,81.13
2023-01-28T00:41:01.822Z,80.72
2023-01-28T00:42:01.863Z,80.20
2023-01-28T00:43:01.822Z,80.55
2023-01-28T00:44:01.814Z,80.86
2023-01-28T00:45:01.773Z,81.18
2023-01-28T00:46:01.801Z,81.18
2023-01-28T00:47:01.768Z,80.76
2023-01-28T00:48:01.769Z,80.86
2023-01-28T00:49:01.727Z,80.76
2023-01-28T00:50:01.745Z,80.86
2023-01-28T00:51:01.698Z,80.96
2023-01-28T00:52:01.753Z,81.13
2023-01-28T00:53:01.705Z,80.96
2023-01-28T00:54:01.684Z,80.76
2023-01-28T00:55:01.672Z,80.76
2023-01-28T00:56:01.673Z,80.86
2023-01-28T00:57:01.635Z,80.96
2023-01-28T00:58:01.632Z,81.07
2023-01-28T00:59:01.621Z,80.96
2023-01-28T01:00:01.678Z,81.07
2023-01-28T01:01:01.587Z,81.18
2023-01-28T01:02:01.588Z,81.28
2023-01-28T01:03:01.570Z,81.18
2023-01-28T01:04:01.581Z,81.07
2023-01-28T01:05:01.525Z,81.07
2023-01-28T01:06:01.558Z,81.18
2023-01-28T01:07:01.565Z,81.28
2023-01-28T01:08:01.516Z,81.49
2023-01-28T01:09:01.486Z,81.18
2023-01-28T01:10:01.485Z,81.18
2023-01-28T01:11:01.458Z,81.28
2023-01-28T01:12:01.474Z,81.38
2023-01-28T01:13:01.464Z,81.49
2023-01-28T01:14:01.430Z,81.59
2023-01-28T01:15:01.390Z,81.80
2023-01-28T01:16:01.491Z,81.90
2023-01-28T01:17:01.370Z,81.80
2023-01-28T01:18:01.389Z,81.38
2023-01-28T01:19:01.379Z,81.28
2023-01-28T01:20:01.357Z,81.59
2023-01-28T01:21:01.325Z,81.59
2023-01-28T01:22:01.338Z,81.59
2023-01-28T01:23:01.301Z,81.49
2023-01-28T01:24:01.349Z,81.59
2023-01-28T01:25:01.296Z,81.70
2023-01-28T01:26:01.295Z,81.90
2023-01-28T01:27:01.247Z,82.01
2023-01-28T01:28:01.243Z,82.01
2023-01-28T01:29:01.254Z,81.90
2023-01-28T01:30:01.232Z,81.90
2023-01-28T01:31:01.224Z,81.90
2023-01-28T01:32:01.408Z,81.80
2023-01-28T01:33:01.174Z,81.80
2023-01-28T01:34:01.186Z,81.80
2023-01-28T01:35:01.170Z,81.80
2023-01-28T01:36:01.179Z,81.90
2023-01-28T01:37:01.156Z,82.12
2023-01-28T01:38:01.109Z,81.80
2023-01-28T01:39:01.138Z,81.70
2023-01-28T01:40:01.086Z,81.80
2023-01-28T01:41:01.115Z,81.90
2023-01-28T01:42:01.056Z,81.90
2023-01-28T01:43:01.075Z,81.90
2023-01-28T01:44:01.079Z,81.90
2023-01-28T01:45:01.069Z,81.90
2023-01-28T01:46:01.064Z,82.01
2023-01-28T01:47:01.053Z,82.12
2023-01-28T01:48:00.981Z,82.01
2023-01-28T01:49:00.999Z,82.12
2023-01-28T01:50:00.951Z,82.12
2023-01-28T01:51:00.971Z,82.01
2023-01-28T01:52:00.929Z,82.01
2023-01-28T01:53:00.975Z,81.90
2023-01-28T01:54:00.907Z,81.80
2023-01-28T01:55:00.925Z,81.49
2023-01-28T01:56:00.891Z,81.49
2023-01-28T01:57:00.903Z,81.59
2023-01-28T01:58:00.856Z,81.59
2023-01-28T01:59:00.914Z,81.66
2023-01-28T02:00:00.833Z,81.66
2023-01-28T02:01:00.833Z,81.66
2023-01-28T02:02:00.891Z,81.76
2023-01-28T02:03:00.825Z,81.87
2023-01-28T02:04:00.782Z,81.87
2023-01-28T02:05:00.812Z,81.45
2023-01-28T02:06:00.761Z,81.24
2023-01-28T02:07:00.816Z,81.24
2023-01-28T02:08:00.729Z,81.13
2023-01-28T02:09:00.745Z,81.03
2023-01-28T02:10:00.712Z,80.93
2023-01-28T02:11:00.708Z,81.03
2023-01-28T02:12:00.702Z,80.72
2023-01-28T02:13:00.685Z,80.72
2023-01-28T02:14:00.675Z,80.82
2023-01-28T02:15:00.696Z,80.82
2023-01-28T02:16:00.636Z,80.82
2023-01-28T02:17:00.653Z,81.03
2023-01-28T02:18:00.605Z,81.03
2023-01-28T02:19:00.648Z,81.13
2023-01-28T02:20:00.618Z,81.03
2023-01-28T02:21:00.601Z,81.13
2023-01-28T02:22:00.561Z,81.24
2023-01-28T02:23:00.588Z,80.93
2023-01-28T02:24:00.649Z,80.93
2023-01-28T02:25:00.577Z,80.82
2023-01-28T02:26:00.518Z,80.82
2023-01-28T02:27:00.510Z,80.93
2023-01-28T02:28:00.494Z,81.13
2023-01-28T02:29:00.486Z,81.13
2023-01-28T02:30:00.476Z,81.03
2023-01-28T02:31:00.594Z,81.03
2023-01-28T02:32:00.434Z,80.93
2023-01-28T02:33:00.448Z,80.82
2023-01-28T02:34:00.417Z,80.82
2023-01-28T02:35:00.442Z,80.93
2023-01-28T02:36:00.382Z,81.03
2023-01-28T02:37:00.394Z,81.24
2023-01-28T02:38:00.376Z,81.24
2023-01-28T02:39:00.371Z,81.13
2023-01-28T02:40:00.335Z,80.93
2023-01-28T02:41:00.379Z,80.93
2023-01-28T02:42:00.307Z,80.82
2023-01-28T02:43:00.329Z,80.93
2023-01-28T02:44:00.277Z,81.13
2023-01-28T02:45:00.288Z,80.93
2023-01-28T02:46:00.332Z,80.93
2023-01-28T02:47:00.288Z,80.72
2023-01-28T02:48:00.248Z,80.72
2023-01-28T02:49:00.260Z,80.93
2023-01-28T02:50:00.210Z,80.72
2023-01-28T02:51:00.256Z,80.72
2023-01-28T02:52:00.204Z,80.82
2023-01-28T02:53:00.200Z,81.03
2023-01-28T02:54:00.181Z,81.24
2023-01-28T02:55:00.160Z,81.13
2023-01-28T02:56:00.139Z,81.03
2023-01-28T02:57:00.178Z,80.93
2023-01-28T02:58:00.155Z,81.03
2023-01-28T02:59:00.110Z,81.03
2023-01-28T03:00:00.122Z,81.13
2023-01-28T03:01:00.092Z,81.03
2023-01-28T03:02:00.063Z,81.24
2023-01-28T03:03:00.131Z,81.13
2023-01-28T03:04:00.063Z,81.13
2023-01-28T03:05:00.097Z,80.82
2023-01-28T03:06:00.013Z,80.72
2023-01-28T03:07:00.022Z,80.82
2023-01-28T03:08:00.006Z,81.03
2023-01-28T03:08:59.992Z,81.13
2023-01-28T03:09:59.961Z,81.03
2023-01-28T03:10:59.971Z,81.03
2023-01-28T03:11:59.941Z,81.13
2023-01-28T03:12:59.972Z,81.03
2023-01-28T03:13:59.910Z,81.13
2023-01-28T03:14:59.923Z,81.03
2023-01-28T03:16:00.045Z,81.03
2023-01-28T03:16:59.911Z,81.03
2023-01-28T03:17:59.867Z,81.13
2023-01-28T03:18:59.909Z,81.24
2023-01-28T03:19:59.876Z,81.24
2023-01-28T03:20:59.853Z,80.93
2023-01-28T03:21:59.815Z,80.82
2023-01-28T03:22:59.838Z,80.62
2023-01-28T03:23:59.853Z,80.82
2023-01-28T03:24:59.835Z,81.28
2023-01-28T03:25:59.775Z,81.59
2023-01-28T03:26:59.792Z,81.59
2023-01-28T03:27:59.747Z,81.70
2023-01-28T03:28:59.762Z,81.70
2023-01-28T03:29:59.724Z,81.28
2023-01-28T03:30:59.808Z,81.28
2023-01-28T03:31:59.716Z,81.24
2023-01-28T03:32:59.713Z,81.49
2023-01-28T03:33:59.672Z,81.70
2023-01-28T03:34:59.717Z,81.80
2023-01-28T03:35:59.646Z,82.01
2023-01-28T03:36:59.667Z,81.80
2023-01-28T03:37:59.626Z,81.59
2023-01-28T03:38:59.635Z,81.38
2023-01-28T03:39:59.615Z,81.59
2023-01-28T03:40:59.628Z,81.59
2023-01-28T03:41:59.576Z,81.45
2023-01-28T03:42:59.584Z,81.45
2023-01-28T03:43:59.532Z,81.24
2023-01-28T03:44:59.542Z,81.03
2023-01-28T03:45:59.561Z,81.03
2023-01-28T03:46:59.540Z,81.13
2023-01-28T03:47:59.510Z,81.45
2023-01-28T03:48:59.518Z,81.66
2023-01-28T03:49:59.467Z,81.66
2023-01-28T03:50:59.477Z,81.45
2023-01-28T03:51:59.437Z,81.56
2023-01-28T03:52:59.477Z,81.56
2023-01-28T03:53:59.413Z,81.56
2023-01-28T03:54:59.433Z,81.87
2023-01-28T03:55:59.397Z,81.97
2023-01-28T03:56:59.394Z,81.97
2023-01-28T03:57:59.372Z,81.97
2023-01-28T03:58:59.405Z,81.97
2023-01-28T03:59:59.344Z,82.07
2023-01-28T04:00:59.347Z,82.29
2023-01-28T04:01:59.387Z,82.07
2023-01-28T04:02:59.364Z,81.87
2023-01-28T04:03:59.309Z,81.56
2023-01-28T04:04:59.291Z,81.45
2023-01-28T04:05:59.271Z,81.45
2023-01-28T04:06:59.270Z,81.35
2023-01-28T04:07:59.266Z,81.45
2023-01-28T04:08:59.468Z,81.38
2023-01-28T04:09:59.219Z,81.49
2023-01-28T04:10:59.247Z,81.70
2023-01-28T04:11:59.192Z,81.70
2023-01-28T04:12:59.228Z,81.90
2023-01-28T04:13:59.168Z,82.22
2023-01-28T04:14:59.173Z,82.32
2023-01-28T04:15:59.154Z,82.32
2023-01-28T04:16:59.154Z,82.43
2023-01-28T04:17:59.135Z,82.43
2023-01-28T04:18:59.142Z,82.32
2023-01-28T04:19:59.096Z,82.01
2023-01-28T04:20:59.101Z,82.12
2023-01-28T04:21:59.059Z,82.22
2023-01-28T04:22:59.085Z,82.01
2023-01-28T04:23:59.081Z,82.22
2023-01-28T04:24:59.118Z,82.53
2023-01-28T04:25:59.017Z,82.32
2023-01-28T04:26:59.016Z,82.22
2023-01-28T04:27:58.996Z,82.22
2023-01-28T04:28:58.993Z,82.22
2023-01-28T04:29:58.969Z,82.22
2023-01-28T04:30:59.033Z,82.32
2023-01-28T04:31:58.942Z,82.43
2023-01-28T04:32:58.963Z,82.53
2023-01-28T04:33:58.944Z,82.53
2023-01-28T04:34:58.962Z,82.32
2023-01-28T04:35:58.914Z,82.32
2023-01-28T04:36:58.896Z,82.32
2023-01-28T04:37:58.859Z,82.22
2023-01-28T04:38:58.889Z,82.12
2023-01-28T04:39:58.841Z,82.01
2023-01-28T04:40:58.868Z,81.70
2023-01-28T04:41:58.807Z,81.80
2023-01-28T04:42:58.827Z,82.01
2023-01-28T04:43:58.788Z,82.22
2023-01-28T04:44:58.805Z,82.22
2023-01-28T04:45:58.805Z,82.43
2023-01-28T04:46:58.794Z,82.53
2023-01-28T04:47:58.746Z,82.53
2023-01-28T04:48:58.744Z,82.32
2023-01-28T04:49:58.714Z,82.32
2023-01-28T04:50:58.748Z,82.43
2023-01-28T04:51:58.724Z,82.32
2023-01-28T04:52:58.714Z,82.32
2023-01-28T04:53:58.661Z,82.01
2023-01-28T04:54:58.678Z,81.80
2023-01-28T04:55:58.656Z,82.01
2023-01-28T04:56:58.660Z,82.01
2023-01-28T04:57:58.631Z,82.12
2023-01-28T04:58:58.677Z,82.01
2023-01-28T04:59:58.607Z,82.01
2023-01-28T05:00:58.652Z,82.01
2023-01-28T05:01:58.680Z,82.12
2023-01-28T05:02:58.568Z,82.01
2023-01-28T05:03:58.545Z,81.87
2023-01-28T05:04:58.554Z,81.90
2023-01-28T05:05:58.512Z,81.87
2023-01-28T05:06:58.560Z,81.97
2023-01-28T05:07:58.520Z,81.87
2023-01-28T05:08:58.508Z,81.87
2023-01-28T05:09:58.461Z,81.97
2023-01-28T05:10:58.484Z,81.76
2023-01-28T05:11:58.460Z,81.76
2023-01-28T05:12:58.443Z,81.76
2023-01-28T05:13:58.418Z,81.66
2023-01-28T05:14:58.427Z,81.76
2023-01-28T05:15:58.394Z,81.87
2023-01-28T05:16:58.420Z,81.97
2023-01-28T05:17:58.389Z,82.18
2023-01-28T05:18:58.445Z,82.18
2023-01-28T05:19:58.361Z,82.07
2023-01-28T05:20:58.355Z,81.45
2023-01-28T05:21:58.318Z,81.35
2023-01-28T05:22:58.326Z,81.56
2023-01-28T05:23:58.329Z,82.01
2023-01-28T05:25:05.370Z,82.01
2023-01-28T05:25:58.261Z,81.97
2023-01-28T05:26:58.273Z,81.87
2023-01-28T05:27:58.232Z,81.66
2023-01-28T05:28:58.238Z,81.56
2023-01-28T05:29:58.216Z,81.56
2023-01-28T05:30:58.254Z,81.56
2023-01-28T05:31:58.183Z,81.56
2023-01-28T05:32:58.211Z,81.66
2023-01-28T05:33:58.156Z,81.66
2023-01-28T05:34:58.175Z,81.66
2023-01-28T05:35:58.150Z,81.45
2023-01-28T05:36:58.201Z,81.45
2023-01-28T05:37:58.112Z,81.45
2023-01-28T05:38:58.121Z,81.45
2023-01-28T05:39:58.083Z,81.66
2023-01-28T05:40:58.140Z,81.87
2023-01-28T05:41:58.061Z,81.97
2023-01-28T05:42:58.082Z,82.07
2023-01-28T05:43:58.029Z,82.32
2023-01-28T05:44:58.048Z,82.74
2023-01-28T05:45:58.105Z,82.84
2023-01-28T05:46:58.031Z,82.84
2023-01-28T05:47:58.002Z,82.74
2023-01-28T05:48:58.013Z,82.74
2023-01-28T05:49:57.961Z,82.64
2023-01-28T05:50:57.948Z,82.64
2023-01-28T05:51:57.974Z,82.74
2023-01-28T05:52:57.940Z,82.84
2023-01-28T05:53:57.934Z,82.95
2023-01-28T05:54:57.894Z,82.84
2023-01-28T05:55:57.912Z,83.06
2023-01-28T05:56:57.893Z,82.95
2023-01-28T05:57:57.912Z,82.95
2023-01-28T05:58:57.841Z,82.84
2023-01-28T05:59:57.867Z,82.91
2023-01-28T06:00:57.820Z,82.81
2023-01-28T06:01:57.819Z,82.81
2023-01-28T06:02:57.833Z,82.50
2023-01-28T06:03:57.809Z,82.29
2023-01-28T06:04:57.789Z,82.18
2023-01-28T06:05:57.800Z,82.18
2023-01-28T06:06:57.745Z,82.29
2023-01-28T06:07:57.756Z,82.29
2023-01-28T06:08:57.744Z,82.18
2023-01-28T06:09:57.774Z,82.18
2023-01-28T06:10:57.700Z,82.18
2023-01-28T06:11:57.713Z,82.50
2023-01-28T06:12:57.687Z,82.39
2023-01-28T06:13:57.671Z,82.50
2023-01-28T06:14:57.648Z,81.97
2023-01-28T06:15:57.729Z,81.97
2023-01-28T06:16:57.660Z,81.97
2023-01-28T06:17:57.638Z,82.18
2023-01-28T06:18:57.608Z,82.29
2023-01-28T06:19:57.681Z,82.07
2023-01-28T06:20:57.567Z,81.97
2023-01-28T06:21:57.586Z,81.97
2023-01-28T06:22:57.550Z,81.87
2023-01-28T06:23:57.630Z,81.76
2023-01-28T06:24:57.526Z,81.76
2023-01-28T06:25:58.473Z,81.97
2023-01-28T06:26:57.513Z,82.07
2023-01-28T06:27:57.512Z,81.35
2023-01-28T06:28:57.473Z,81.13
2023-01-28T06:29:57.524Z,81.13
2023-01-28T06:30:57.527Z,81.24
2023-01-28T06:31:57.495Z,81.24
2023-01-28T06:32:57.435Z,81.24
2023-01-28T06:33:57.400Z,81.24
2023-01-28T06:34:57.405Z,81.13
2023-01-28T06:35:57.400Z,81.24
2023-01-28T06:36:57.370Z,81.45
2023-01-28T06:37:57.399Z,81.66
2023-01-28T06:38:57.338Z,81.56
2023-01-28T06:39:57.318Z,81.24
2023-01-28T06:40:57.325Z,81.13
2023-01-28T06:41:57.347Z,81.03
2023-01-28T06:42:57.305Z,81.03
2023-01-28T06:43:57.283Z,81.35
2023-01-28T06:44:57.225Z,81.45
2023-01-28T06:45:57.256Z,81.13
2023-01-28T06:46:57.223Z,80.82
2023-01-28T06:47:57.199Z,80.72
2023-01-28T06:48:57.181Z,80.82
2023-01-28T06:49:57.183Z,80.72
2023-01-28T06:50:57.148Z,80.41
2023-01-28T06:51:57.152Z,80.41
2023-01-28T06:52:57.139Z,80.62
2023-01-28T06:53:57.119Z,80.51
2023-01-28T06:54:57.089Z,80.62
2023-01-28T06:55:57.111Z,80.62
2023-01-28T06:56:57.067Z,80.72
2023-01-28T06:57:57.087Z,80.09
2023-01-28T06:58:57.065Z,80.30
2023-01-28T06:59:57.056Z,79.99
2023-01-28T07:00:57.012Z,80.09
2023-01-28T07:01:57.059Z,80.30
2023-01-28T07:02:57.089Z,80.09
2023-01-28T07:03:57.001Z,79.88
2023-01-28T07:04:56.993Z,79.57
2023-01-28T07:05:56.998Z,79.57
2023-01-28T07:06:56.951Z,79.57
2023-01-28T07:07:56.979Z,79.57
2023-01-28T07:08:56.944Z,79.57
2023-01-28T07:09:56.937Z,79.68
2023-01-28T07:10:56.908Z,79.78
2023-01-28T07:11:56.914Z,79.36
2023-01-28T07:12:56.858Z,79.47
2023-01-28T07:13:56.885Z,79.68
2023-01-28T07:14:56.864Z,79.57
2023-01-28T07:15:56.874Z,79.47
2023-01-28T07:16:56.859Z,79.57
2023-01-28T07:17:56.839Z,79.57
2023-01-28T07:18:56.795Z,79.68
2023-01-28T07:19:56.794Z,79.78
2023-01-28T07:20:56.802Z,80.09
2023-01-28T07:21:56.781Z,79.78
2023-01-28T07:22:56.740Z,79.57
2023-01-28T07:23:56.789Z,79.15
2023-01-28T07:24:56.713Z,79.05
2023-01-28T07:25:56.766Z,79.05
2023-01-28T07:26:56.689Z,79.15
2023-01-28T07:27:56.713Z,79.05
2023-01-28T07:28:56.660Z,78.94
2023-01-28T07:29:56.666Z,78.94
2023-01-28T07:30:56.678Z,79.05
2023-01-28T07:31:56.673Z,79.15
2023-01-28T07:32:56.671Z,79.36
2023-01-28T07:33:56.634Z,79.36
2023-01-28T07:34:56.586Z,78.94
2023-01-28T07:35:56.595Z,78.94
2023-01-28T07:36:57.569Z,79.15
2023-01-28T07:37:56.602Z,79.36
2023-01-28T07:38:56.542Z,79.15
2023-01-28T07:39:56.558Z,79.26
2023-01-28T07:40:56.509Z,79.26
2023-01-28T07:41:56.523Z,78.80
2023-01-28T07:42:56.521Z,79.05
2023-01-28T07:43:56.496Z,79.15
2023-01-28T07:44:56.496Z,79.26
2023-01-28T07:45:56.477Z,79.15
2023-01-28T07:46:56.463Z,79.01
2023-01-28T07:47:56.447Z,79.01
2023-01-28T07:48:56.415Z,79.22
2023-01-28T07:49:56.484Z,79.11
2023-01-28T07:50:56.406Z,79.11
2023-01-28T07:51:56.406Z,79.01
2023-01-28T07:52:56.363Z,79.01
2023-01-28T07:53:56.381Z,78.80
2023-01-28T07:54:56.365Z,78.80
2023-01-28T07:55:56.360Z,78.59
2023-01-28T07:56:56.311Z,78.59
2023-01-28T07:57:56.336Z,78.59
2023-01-28T07:58:56.289Z,78.39
2023-01-28T07:59:56.296Z,78.28
2023-01-28T08:00:56.298Z,77.66
2023-01-28T08:01:56.270Z,77.24
2023-01-28T08:02:56.239Z,77.45
2023-01-28T08:03:56.256Z,77.66
2023-01-28T08:04:56.327Z,77.66
2023-01-28T08:05:56.235Z,77.76
2023-01-28T08:06:56.187Z,77.66
2023-01-28T08:07:56.211Z,77.86
2023-01-28T08:08:56.163Z,77.76
2023-01-28T08:09:56.186Z,77.66
2023-01-28T08:10:56.161Z,77.51
2023-01-28T08:11:56.159Z,77.24
2023-01-28T08:12:56.111Z,77.14
2023-01-28T08:13:56.122Z,77.24
2023-01-28T08:14:56.098Z,77.14
2023-01-28T08:15:56.093Z,76.72
2023-01-28T08:16:56.079Z,76.68
2023-01-28T08:17:57.047Z,76.68
2023-01-28T08:18:56.043Z,77.10
2023-01-28T08:19:56.057Z,77.20
2023-01-28T08:20:56.035Z,76.89
2023-01-28T08:21:56.056Z,76.89
2023-01-28T08:22:55.988Z,77.00
2023-01-28T08:23:56.063Z,77.00
2023-01-28T08:24:55.986Z,77.20
2023-01-28T08:25:55.987Z,76.47
2023-01-28T08:26:55.965Z,76.30
2023-01-28T08:27:55.957Z,76.61
2023-01-28T08:28:55.961Z,76.51
2023-01-28T08:29:55.930Z,76.20
2023-01-28T08:30:55.970Z,75.98
2023-01-28T08:31:55.901Z,75.88
2023-01-28T08:32:55.861Z,76.09
2023-01-28T08:33:55.878Z,76.20
2023-01-28T08:34:55.839Z,76.30
2023-01-28T08:35:55.862Z,76.20
2023-01-28T08:36:55.822Z,75.67
2023-01-28T08:37:55.838Z,75.36
2023-01-28T08:38:55.806Z,75.26
2023-01-28T08:39:55.834Z,75.22
2023-01-28T08:40:55.766Z,75.36
2023-01-28T08:41:55.772Z,75.22
2023-01-28T08:42:55.737Z,75.12
2023-01-28T08:43:55.763Z,75.43
2023-01-28T08:44:55.714Z,75.22
2023-01-28T08:45:55.728Z,74.70
2023-01-28T08:46:55.693Z,74.38
2023-01-28T08:47:55.699Z,74.38
2023-01-28T08:48:55.689Z,74.49
2023-01-28T08:49:55.671Z,74.80
2023-01-28T08:50:55.642Z,74.91
2023-01-28T08:51:55.660Z,75.01
2023-01-28T08:52:55.620Z,75.12
2023-01-28T08:53:55.627Z,75.12
2023-01-28T08:54:55.611Z,75.12
2023-01-28T08:55:55.627Z,74.91
2023-01-28T08:56:55.565Z,74.49
2023-01-28T08:57:58.209Z,74.49
2023-01-28T08:58:55.550Z,74.80
2023-01-28T08:59:55.561Z,74.87
2023-01-28T09:00:55.552Z,74.56
2023-01-28T09:01:55.638Z,74.56
2023-01-28T09:02:55.495Z,74.66
2023-01-28T09:03:55.657Z,74.66
2023-01-28T09:04:55.463Z,74.46
2023-01-28T09:05:55.480Z,74.04
2023-01-28T09:06:55.460Z,73.83
2023-01-28T09:07:55.509Z,72.89
2023-01-28T09:08:55.428Z,72.68
2023-01-28T09:09:55.427Z,72.68
2023-01-28T09:10:55.418Z,72.89
2023-01-28T09:11:55.396Z,73.03
2023-01-28T09:12:55.375Z,73.24
2023-01-28T09:13:55.392Z,73.41
2023-01-28T09:14:55.350Z,73.41
2023-01-28T09:15:55.410Z,73.00
2023-01-28T09:16:55.423Z,73.21
2023-01-28T09:17:55.363Z,73.72
2023-01-28T09:18:55.297Z,73.52
2023-01-28T09:19:55.434Z,73.52
2023-01-28T09:20:55.271Z,73.72
2023-01-28T09:21:55.270Z,73.27
2023-01-28T09:22:55.251Z,73.17
2023-01-28T09:23:55.375Z,72.86
2023-01-28T09:24:55.240Z,72.96
2023-01-28T09:25:55.247Z,73.17
2023-01-28T09:26:55.259Z,72.86
2023-01-28T09:27:55.637Z,72.16
2023-01-28T09:28:55.167Z,72.37
2023-01-28T09:29:55.277Z,72.37
2023-01-28T09:30:55.257Z,71.64
2023-01-28T09:31:55.202Z,71.75
2023-01-28T09:32:55.164Z,71.53
2023-01-28T09:33:55.123Z,71.22
2023-01-28T09:34:55.094Z,71.53
2023-01-28T09:35:55.247Z,71.64
2023-01-28T09:36:55.146Z,71.85
2023-01-28T09:37:55.082Z,71.33
2023-01-28T09:38:55.320Z,70.91
2023-01-28T09:39:55.079Z,70.50
2023-01-28T09:40:55.039Z,70.50
2023-01-28T09:41:55.078Z,70.39
2023-01-28T09:42:55.006Z,70.15
2023-01-28T09:43:55.027Z,70.04
2023-01-28T09:44:54.971Z,69.94
2023-01-28T09:45:55.011Z,69.84
2023-01-28T09:46:54.975Z,69.81
2023-01-28T09:47:54.976Z,69.49
2023-01-28T09:48:54.923Z,69.28
2023-01-28T09:49:54.923Z,69.07
2023-01-28T09:50:54.936Z,68.55
2023-01-28T09:51:54.946Z,68.10
2023-01-28T09:52:54.952Z,68.21
2023-01-28T09:53:54.890Z,68.52
2023-01-28T09:54:54.855Z,68.63
2023-01-28T09:55:54.891Z,68.52
2023-01-28T09:56:54.825Z,68.10
2023-01-28T09:57:54.840Z,68.32
2023-01-28T09:58:54.793Z,68.42
2023-01-28T09:59:54.831Z,68.10
2023-01-28T10:00:54.860Z,68.52
2023-01-28T10:01:54.797Z,68.73
2023-01-28T10:02:54.747Z,68.42
2023-01-28T10:03:54.784Z,68.00
2023-01-28T10:04:54.755Z,68.10
2023-01-28T10:05:54.725Z,67.69
2023-01-28T10:06:54.735Z,67.79
2023-01-28T10:07:54.794Z,67.58
2023-01-28T10:08:54.698Z,67.69
2023-01-28T10:09:54.660Z,68.38
2023-01-28T10:10:54.694Z,68.38
2023-01-28T10:11:54.632Z,68.07
2023-01-28T10:12:54.650Z,68.07
2023-01-28T10:13:54.600Z,67.52
2023-01-28T10:14:54.635Z,68.04
2023-01-28T10:15:54.589Z,68.25
2023-01-28T10:16:54.590Z,67.83
2023-01-28T10:18:07.204Z,68.18
2023-01-28T10:18:55.557Z,68.38
2023-01-28T10:19:54.557Z,68.38
2023-01-28T10:20:54.565Z,68.28
2023-01-28T10:21:54.512Z,68.49
2023-01-28T10:22:54.524Z,68.70
2023-01-28T10:23:54.617Z,68.80
2023-01-28T10:24:54.521Z,68.91
2023-01-28T10:25:54.492Z,68.80
2023-01-28T10:26:54.536Z,69.22
2023-01-28T10:27:54.444Z,68.80
2023-01-28T10:28:54.433Z,69.22
2023-01-28T10:29:54.400Z,68.80
2023-01-28T10:30:54.561Z,68.91
2023-01-28T10:31:54.483Z,69.12
2023-01-28T10:32:54.389Z,69.12
2023-01-28T10:33:54.452Z,69.01
2023-01-28T10:34:54.371Z,68.80
2023-01-28T10:35:54.352Z,68.94
2023-01-28T10:36:54.393Z,68.84
2023-01-28T10:37:54.304Z,69.56
2023-01-28T10:38:54.321Z,69.77
2023-01-28T10:39:54.307Z,69.67
2023-01-28T10:40:54.348Z,69.77
2023-01-28T10:41:58.725Z,69.18
2023-01-28T10:42:54.263Z,68.97
2023-01-28T10:43:54.284Z,69.49
2023-01-28T10:44:54.254Z,69.70
2023-01-28T10:45:54.258Z,68.97
2023-01-28T10:46:54.250Z,69.25
2023-01-28T10:47:54.204Z,69.56
2023-01-28T10:48:54.186Z,69.98
2023-01-28T10:49:54.299Z,69.67
2023-01-28T10:50:54.211Z,69.04
2023-01-28T10:51:54.118Z,68.94
2023-01-28T10:52:54.168Z,69.15
2023-01-28T10:53:54.116Z,68.73
2023-01-28T10:54:54.106Z,68.28
2023-01-28T10:55:54.070Z,69.32
2023-01-28T10:56:54.082Z,69.32
2023-01-28T10:57:54.044Z,69.12
2023-01-28T10:58:54.083Z,68.80
2023-01-28T10:59:54.045Z,68.91
2023-01-28T11:00:54.135Z,69.53
2023-01-28T11:01:54.119Z,70.05
2023-01-28T11:02:54.018Z,70.26
2023-01-28T11:03:54.031Z,70.15
2023-01-28T11:04:53.981Z,70.57
2023-01-28T11:05:53.940Z,70.57
2023-01-28T11:06:54.019Z,71.09
2023-01-28T11:07:53.919Z,71.02
2023-01-28T11:08:53.976Z,71.75
2023-01-28T11:09:53.908Z,71.54
2023-01-28T11:10:53.911Z,72.27
2023-01-28T11:11:53.870Z,72.69
2023-01-28T11:12:53.940Z,73.94
2023-01-28T11:13:53.866Z,72.72
2023-01-28T11:14:53.887Z,73.35
2023-01-28T11:15:53.820Z,72.72
2023-01-28T11:16:53.854Z,72.51
2023-01-28T11:17:53.900Z,72.51
2023-01-28T11:18:53.794Z,72.62
2023-01-28T11:19:53.766Z,72.72
2023-01-28T11:20:53.787Z,72.83
2023-01-28T11:21:53.732Z,72.72
2023-01-28T11:22:53.810Z,73.17
2023-01-28T11:23:53.787Z,73.27
2023-01-28T11:24:53.731Z,73.49
2023-01-28T11:26:00.766Z,73.38
2023-01-28T11:26:53.709Z,73.38
2023-01-28T11:27:53.660Z,73.69
2023-01-28T11:28:53.687Z,74.21
2023-01-28T11:29:53.638Z,74.01
2023-01-28T11:30:53.705Z,74.01
2023-01-28T11:31:53.659Z,74.32
2023-01-28T11:32:53.626Z,74.42
2023-01-28T11:33:53.585Z,74.63
2023-01-28T11:34:53.615Z,74.32
2023-01-28T11:35:53.563Z,74.21
2023-01-28T11:36:53.633Z,74.42
2023-01-28T11:37:53.536Z,74.52
2023-01-28T11:38:53.552Z,74.01
2023-01-28T11:39:53.532Z,73.76
2023-01-28T11:40:53.532Z,73.66
2023-01-28T11:41:53.531Z,73.76
2023-01-28T11:42:53.509Z,73.97
2023-01-28T11:43:53.460Z,73.76
2023-01-28T11:44:53.515Z,74.11
2023-01-28T11:45:53.458Z,73.80
2023-01-28T11:46:53.469Z,74.32
2023-01-28T11:47:53.411Z,74.11
2023-01-28T11:48:53.420Z,73.90
2023-01-28T11:49:53.377Z,74.11
2023-01-28T11:50:53.408Z,74.11
2023-01-28T11:51:53.363Z,73.59
2023-01-28T11:53:06.746Z,73.90
2023-01-28T11:53:54.348Z,74.63
2023-01-28T11:54:53.340Z,74.63
2023-01-28T11:55:53.334Z,73.90
2023-01-28T11:56:53.330Z,73.69
2023-01-28T11:57:53.283Z,73.59
2023-01-28T11:58:53.289Z,73.69
2023-01-28T11:59:53.283Z,73.90
2023-01-28T12:00:53.267Z,74.01
2023-01-28T12:01:53.265Z,74.42
2023-01-28T12:02:53.322Z,74.32
2023-01-28T12:03:53.221Z,74.32
2023-01-28T12:04:53.275Z,74.42
2023-01-28T12:05:53.191Z,74.42
2023-01-28T12:06:53.231Z,74.63
2023-01-28T12:07:53.176Z,74.63
2023-01-28T12:08:53.164Z,74.63
2023-01-28T12:09:53.135Z,74.52
2023-01-28T12:10:53.163Z,74.52
2023-01-28T12:11:53.136Z,74.52
2023-01-28T12:12:53.112Z,74.84
2023-01-28T12:13:53.093Z,74.74
2023-01-28T12:14:53.090Z,74.32
2023-01-28T12:15:53.118Z,73.80
2023-01-28T12:16:53.090Z,74.01
2023-01-28T12:17:53.044Z,74.42
2023-01-28T12:18:53.059Z,74.63
2023-01-28T12:19:53.014Z,74.49
2023-01-28T12:20:53.042Z,74.49
2023-01-28T12:21:52.987Z,74.11
2023-01-28T12:22:53.023Z,74.11
2023-01-28T12:23:52.997Z,73.97
2023-01-28T12:24:52.983Z,74.29
2023-01-28T12:25:52.937Z,73.97
2023-01-28T12:26:52.945Z,73.76
2023-01-28T12:27:52.945Z,73.66
2023-01-28T12:28:52.913Z,73.97
2023-01-28T12:29:52.883Z,74.39
2023-01-28T12:30:52.889Z,74.29
2023-01-28T12:31:52.901Z,74.60
2023-01-28T12:32:52.861Z,74.74
2023-01-28T12:33:52.858Z,74.91
2023-01-28T12:34:52.851Z,74.70
2023-01-28T12:35:52.807Z,74.39
2023-01-28T12:36:52.840Z,74.49
2023-01-28T12:37:52.797Z,74.80
2023-01-28T12:38:52.822Z,74.80
2023-01-28T12:39:52.761Z,74.91
2023-01-28T12:40:52.766Z,75.01
2023-01-28T12:41:52.759Z,75.32
2023-01-28T12:42:52.738Z,75.43
2023-01-28T12:43:52.719Z,75.53
2023-01-28T12:44:52.754Z,74.70
2023-01-28T12:45:52.743Z,74.70
2023-01-28T12:46:52.707Z,74.80
2023-01-28T12:47:52.659Z,75.12
2023-01-28T12:48:52.661Z,75.12
2023-01-28T12:49:52.662Z,74.80
2023-01-28T12:50:52.661Z,74.49
2023-01-28T12:51:52.610Z,74.60